createdAt,value
2019-05-05T00:01:46.739Z,49.50
2019-05-05T00:04:37.995Z,49.60
2019-05-05T00:07:07.784Z,49.60
2019-05-05T00:09:37.439Z,49.60
2019-05-05T00:12:25.161Z,49.60
2019-05-05T00:15:16.841Z,49.50
2019-05-05T00:17:46.679Z,49.50
2019-05-05T00:20:16.352Z,49.50
2019-05-05T00:22:46.026Z,49.40
2019-05-05T00:25:15.668Z,49.30
2019-05-05T00:27:45.476Z,49.30
2019-05-05T00:30:15.465Z,49.70
2019-05-05T00:32:45.141Z,49.40
2019-05-05T00:35:14.936Z,49.30
2019-05-05T00:37:45.113Z,49.30
2019-05-05T00:40:14.916Z,49.30
2019-05-05T00:42:45.573Z,49.20
2019-05-05T00:45:15.312Z,49.10
2019-05-05T00:48:06.633Z,49.10
2019-05-05T00:50:36.386Z,49.20
2019-05-05T00:53:06.033Z,49.10
2019-05-05T00:55:35.704Z,49.10
2019-05-05T00:58:05.412Z,49.30
2019-05-05T01:01:00.213Z,49.00
2019-05-05T01:03:29.973Z,49.10
2019-05-05T01:06:11.364Z,49.00
2019-05-05T01:08:41.254Z,49.00
2019-05-05T01:11:10.896Z,49.10
2019-05-05T01:13:40.569Z,49.00
2019-05-05T01:16:10.224Z,49.00
2019-05-05T01:18:39.937Z,48.90
2019-05-05T01:21:09.601Z,48.90
2019-05-05T01:23:39.275Z,48.80
2019-05-05T01:26:09.025Z,48.80
2019-05-05T01:28:38.868Z,48.70
2019-05-05T01:31:14.626Z,48.80
2019-05-05T01:34:07.954Z,48.80
2019-05-05T01:36:37.656Z,48.80
2019-05-05T01:39:35.597Z,48.90
2019-05-05T01:42:10.954Z,48.70
2019-05-05T01:44:40.679Z,48.60
2019-05-05T01:47:10.671Z,48.70
2019-05-05T01:50:08.223Z,48.70
2019-05-05T01:52:34.437Z,48.70
2019-05-05T01:55:05.254Z,48.60
2019-05-05T01:57:35.106Z,48.60
2019-05-05T02:00:05.125Z,48.60
2019-05-05T02:02:55.383Z,48.70
2019-05-05T02:05:25.265Z,48.60
2019-05-05T02:07:55.309Z,48.60
2019-05-05T02:10:25.497Z,48.60
2019-05-05T02:12:55.273Z,48.60
2019-05-05T02:15:25.138Z,48.60
2019-05-05T02:17:55.117Z,48.60
2019-05-05T02:20:45.119Z,48.50
2019-05-05T02:23:17.044Z,48.50
2019-05-05T02:25:46.768Z,49.20
2019-05-05T02:28:16.454Z,48.50
2019-05-05T02:31:10.872Z,48.50
2019-05-05T02:33:40.683Z,48.50
2019-05-05T02:36:10.406Z,48.50
2019-05-05T02:38:40.179Z,48.50
2019-05-05T02:41:09.850Z,48.60
2019-05-05T02:43:39.518Z,48.50
2019-05-05T02:46:31.825Z,48.50
2019-05-05T02:49:05.039Z,48.50
2019-05-05T02:51:35.275Z,48.40
2019-05-05T02:54:04.502Z,48.50
2019-05-05T02:56:43.522Z,48.40
2019-05-05T02:59:17.264Z,48.50
2019-05-05T03:02:00.335Z,48.50
2019-05-05T03:04:30.059Z,48.40
2019-05-05T03:06:59.890Z,48.50
2019-05-05T03:09:29.536Z,48.50
2019-05-05T03:11:59.576Z,48.50
2019-05-05T03:14:29.285Z,48.30
2019-05-05T03:16:58.967Z,48.40
2019-05-05T03:19:28.640Z,48.30
2019-05-05T03:21:58.297Z,48.40
2019-05-05T03:24:27.960Z,48.30
2019-05-05T03:26:57.892Z,48.30
2019-05-05T03:29:27.544Z,48.40
2019-05-05T03:31:57.193Z,48.40
2019-05-05T03:34:26.863Z,48.30
2019-05-05T03:36:56.605Z,48.30
2019-05-05T03:39:28.843Z,48.20
2019-05-05T03:42:16.181Z,48.30
2019-05-05T03:45:04.673Z,48.30
2019-05-05T03:47:34.396Z,48.20
2019-05-05T03:50:04.502Z,48.30
2019-05-05T03:52:34.664Z,48.10
2019-05-05T03:55:05.139Z,48.40
2019-05-05T03:57:35.112Z,48.10
2019-05-05T04:00:05.755Z,48.40
2019-05-05T04:02:55.933Z,48.00
2019-05-05T04:05:44.676Z,47.90
2019-05-05T04:08:14.591Z,48.00
2019-05-05T04:10:44.212Z,48.20
2019-05-05T04:13:13.960Z,48.20
2019-05-05T04:15:45.248Z,48.00
2019-05-05T04:18:27.267Z,48.00
2019-05-05T04:20:57.009Z,48.00
2019-05-05T04:23:26.734Z,48.00
2019-05-05T04:25:56.540Z,48.30
2019-05-05T04:28:26.464Z,48.00
2019-05-05T04:30:56.158Z,48.00
2019-05-05T04:33:25.968Z,48.00
2019-05-05T04:35:55.751Z,48.00
2019-05-05T04:38:26.085Z,48.00
2019-05-05T04:40:55.785Z,48.00
2019-05-05T04:43:25.635Z,47.80
2019-05-05T04:45:55.307Z,47.90
2019-05-05T04:48:30.804Z,48.00
2019-05-05T04:51:14.544Z,47.80
2019-05-05T04:54:03.728Z,47.80
2019-05-05T04:56:34.299Z,47.80
2019-05-05T04:59:04.306Z,47.80
2019-05-05T05:01:57.026Z,47.70
2019-05-05T05:04:36.800Z,47.80
2019-05-05T05:07:06.491Z,47.70
2019-05-05T05:09:36.148Z,47.80
2019-05-05T05:12:05.935Z,47.70
2019-05-05T05:14:35.834Z,47.90
2019-05-05T05:17:14.081Z,47.90
2019-05-05T05:19:44.278Z,48.00
2019-05-05T05:22:14.108Z,48.40
2019-05-05T05:24:44.697Z,49.10
2019-05-05T05:27:17.588Z,50.00
2019-05-05T05:29:47.296Z,49.80
2019-05-05T05:32:17.056Z,50.30
2019-05-05T05:34:46.803Z,50.70
2019-05-05T05:37:16.762Z,50.90
2019-05-05T05:40:01.419Z,51.50
2019-05-05T05:42:31.211Z,51.50
2019-05-05T05:45:23.755Z,51.90
2019-05-05T05:48:07.555Z,51.90
2019-05-05T05:50:41.798Z,52.20
2019-05-05T05:53:13.829Z,52.40
2019-05-05T05:55:44.789Z,52.80
2019-05-05T05:58:14.796Z,52.40
2019-05-05T06:00:44.887Z,52.40
2019-05-05T06:03:14.679Z,52.40
2019-05-05T06:05:44.648Z,52.30
2019-05-05T06:08:16.692Z,52.40
2019-05-05T06:10:48.237Z,52.70
2019-05-05T06:13:18.002Z,52.90
2019-05-05T06:15:47.935Z,53.20
2019-05-05T06:18:17.713Z,53.90
2019-05-05T06:20:47.447Z,54.20
2019-05-05T06:23:17.241Z,54.80
2019-05-05T06:25:46.970Z,55.00
2019-05-05T06:28:17.184Z,54.80
2019-05-05T06:30:46.941Z,55.00
2019-05-05T06:33:16.676Z,55.60
2019-05-05T06:35:46.388Z,56.10
2019-05-05T06:38:16.252Z,56.10
2019-05-05T06:41:14.688Z,56.40
2019-05-05T06:44:00.642Z,56.30
2019-05-05T06:46:38.279Z,57.00
2019-05-05T06:49:08.190Z,56.90
2019-05-05T06:51:37.969Z,57.70
2019-05-05T06:54:07.785Z,58.20
2019-05-05T06:56:40.091Z,57.80
2019-05-05T06:59:13.588Z,57.90
2019-05-05T07:01:44.281Z,58.20
2019-05-05T07:04:14.149Z,59.00
2019-05-05T07:06:53.454Z,58.80
2019-05-05T07:09:15.603Z,59.00
2019-05-05T07:11:45.431Z,58.50
2019-05-05T07:14:15.167Z,58.20
2019-05-05T07:16:45.080Z,58.00
2019-05-05T07:19:14.818Z,58.10
2019-05-05T07:21:44.691Z,57.70
2019-05-05T07:24:14.674Z,57.70
2019-05-05T07:26:44.747Z,57.30
2019-05-05T07:29:17.806Z,56.80
2019-05-05T07:31:47.373Z,56.60
2019-05-05T07:34:18.129Z,56.30
2019-05-05T07:36:49.137Z,56.00
2019-05-05T07:39:18.869Z,55.70
2019-05-05T07:41:48.639Z,55.50
2019-05-05T07:44:28.475Z,55.20
2019-05-05T07:46:49.898Z,55.10
2019-05-05T07:49:19.784Z,54.30
2019-05-05T07:51:49.753Z,54.00
2019-05-05T07:54:19.545Z,53.80
2019-05-05T07:56:49.321Z,53.70
2019-05-05T07:59:19.036Z,53.50
2019-05-05T08:01:48.856Z,53.40
2019-05-05T08:04:18.845Z,53.20
2019-05-05T08:06:48.761Z,52.60
2019-05-05T08:09:21.690Z,52.00
2019-05-05T08:11:50.128Z,51.60
2019-05-05T08:14:19.933Z,51.60
2019-05-05T08:16:59.455Z,51.40
2019-05-05T08:19:51.002Z,51.50
2019-05-05T08:22:20.822Z,51.30
2019-05-05T08:25:03.870Z,51.40
2019-05-05T08:27:40.488Z,51.50
2019-05-05T08:30:27.508Z,51.10
2019-05-05T08:32:57.454Z,51.00
2019-05-05T08:35:27.307Z,51.00
2019-05-05T08:37:57.155Z,51.00
2019-05-05T08:40:26.863Z,50.70
2019-05-05T08:42:56.626Z,51.10
2019-05-05T08:45:26.807Z,51.50
2019-05-05T08:47:56.708Z,50.60
2019-05-05T08:50:27.096Z,50.90
2019-05-05T08:52:57.060Z,50.90
2019-05-05T08:55:33.910Z,50.70
2019-05-05T08:58:04.525Z,50.50
2019-05-05T09:00:34.747Z,50.40
2019-05-05T09:03:04.718Z,49.90
2019-05-05T09:05:35.636Z,50.00
2019-05-05T09:08:05.573Z,49.70
2019-05-05T09:10:55.396Z,49.70
2019-05-05T09:13:25.242Z,49.50
2019-05-05T09:15:55.047Z,49.50
2019-05-05T09:18:24.794Z,49.50
2019-05-05T09:20:54.532Z,49.10
2019-05-05T09:23:24.221Z,49.10
2019-05-05T09:26:13.688Z,49.20
2019-05-05T09:29:00.796Z,49.00
2019-05-05T09:31:30.639Z,49.00
2019-05-05T09:34:19.417Z,48.30
2019-05-05T09:36:49.598Z,48.40
2019-05-05T09:39:19.427Z,48.10
2019-05-05T09:41:49.231Z,47.90
2019-05-05T09:44:19.063Z,48.00
2019-05-05T09:46:48.875Z,47.90
2019-05-05T09:49:18.589Z,47.60
2019-05-05T09:51:48.408Z,47.60
2019-05-05T09:54:18.185Z,47.30
2019-05-05T09:56:47.994Z,47.40
2019-05-05T09:59:17.749Z,47.80
2019-05-05T10:01:47.531Z,47.30
2019-05-05T10:04:20.902Z,47.20
2019-05-05T10:06:51.284Z,47.60
2019-05-05T10:09:24.198Z,47.40
2019-05-05T10:11:54.348Z,47.60
2019-05-05T10:14:24.101Z,47.60
2019-05-05T10:16:54.153Z,47.80
2019-05-05T10:19:24.449Z,48.30
2019-05-05T10:21:55.054Z,48.40
2019-05-05T10:24:35.936Z,48.50
2019-05-05T10:27:06.851Z,48.70
2019-05-05T10:29:36.615Z,48.80
2019-05-05T10:32:06.346Z,48.90
2019-05-05T10:34:36.079Z,49.00
2019-05-05T10:37:06.018Z,49.30
2019-05-05T10:39:40.254Z,49.10
2019-05-05T10:42:10.542Z,49.50
2019-05-05T10:44:40.291Z,49.20
2019-05-05T10:47:13.756Z,49.20
2019-05-05T10:49:44.246Z,49.00
2019-05-05T10:52:14.393Z,49.00
2019-05-05T10:54:44.983Z,49.10
2019-05-05T10:57:18.335Z,49.50
2019-05-05T10:59:46.692Z,49.80
2019-05-05T11:02:16.647Z,50.20
2019-05-05T11:04:46.352Z,50.10
2019-05-05T11:07:16.329Z,50.30
2019-05-05T11:09:46.307Z,50.10
2019-05-05T11:12:16.312Z,50.00
2019-05-05T11:14:46.148Z,50.10
2019-05-05T11:17:15.959Z,50.30
2019-05-05T11:19:45.680Z,50.50
2019-05-05T11:22:16.531Z,50.50
2019-05-05T11:24:57.149Z,50.20
2019-05-05T11:27:18.016Z,50.40
2019-05-05T11:30:05.246Z,50.40
2019-05-05T11:32:52.467Z,50.40
2019-05-05T11:35:24.453Z,51.00
2019-05-05T11:37:54.896Z,50.80
2019-05-05T11:40:33.796Z,50.40
2019-05-05T11:43:03.866Z,50.70
2019-05-05T11:45:34.559Z,50.80
2019-05-05T11:48:07.368Z,50.70
2019-05-05T11:50:37.184Z,50.90
2019-05-05T11:53:06.910Z,50.50
2019-05-05T11:55:36.683Z,51.40
2019-05-05T11:58:06.568Z,51.00
2019-05-05T12:00:36.320Z,50.90
2019-05-05T12:03:06.356Z,50.90
2019-05-05T12:05:36.136Z,51.20
2019-05-05T12:08:06.099Z,51.30
2019-05-05T12:10:43.905Z,52.00
2019-05-05T12:13:14.743Z,51.80
2019-05-05T12:15:48.848Z,51.30
2019-05-05T12:18:18.664Z,51.10
2019-05-05T12:20:48.581Z,50.90
2019-05-05T12:23:18.680Z,50.50
2019-05-05T12:26:10.081Z,50.40
2019-05-05T12:28:44.311Z,50.20
2019-05-05T12:31:19.029Z,50.10
2019-05-05T12:33:49.050Z,50.10
2019-05-05T12:36:18.972Z,49.90
2019-05-05T12:38:48.973Z,49.70
2019-05-05T12:41:20.945Z,49.50
2019-05-05T12:43:50.318Z,49.10
2019-05-05T12:46:45.073Z,49.10
2019-05-05T12:49:14.997Z,49.10
2019-05-05T12:51:44.816Z,49.10
2019-05-05T12:54:14.773Z,49.50
2019-05-05T12:56:44.782Z,49.50
2019-05-05T12:59:20.863Z,48.80
2019-05-05T13:01:50.809Z,49.00
2019-05-05T13:04:20.721Z,49.00
2019-05-05T13:06:53.980Z,48.90
2019-05-05T13:09:26.905Z,49.10
2019-05-05T13:11:56.649Z,48.90
2019-05-05T13:14:27.600Z,48.90
2019-05-05T13:16:57.563Z,48.80
2019-05-05T13:19:35.812Z,47.60
2019-05-05T13:22:25.454Z,47.70
2019-05-05T13:25:14.166Z,47.60
2019-05-05T13:27:44.625Z,47.90
2019-05-05T13:30:14.468Z,48.60
2019-05-05T13:32:44.277Z,47.90
2019-05-05T13:35:14.416Z,47.70
2019-05-05T13:37:45.692Z,47.90
2019-05-05T13:40:15.679Z,47.60
2019-05-05T13:42:45.875Z,48.00
2019-05-05T13:45:30.495Z,48.10
2019-05-05T13:48:03.814Z,48.00
2019-05-05T13:50:56.066Z,48.00
2019-05-05T13:53:25.804Z,47.10
2019-05-05T13:56:08.597Z,46.90
2019-05-05T13:58:27.823Z,47.00
2019-05-05T14:00:57.959Z,47.30
2019-05-05T14:03:27.698Z,47.10
2019-05-05T14:05:57.432Z,47.20
2019-05-05T14:08:27.949Z,47.20
2019-05-05T14:10:57.851Z,47.10
2019-05-05T14:13:27.968Z,47.20
2019-05-05T14:15:57.723Z,47.10
2019-05-05T14:18:27.673Z,47.20
2019-05-05T14:20:57.629Z,47.20
2019-05-05T14:23:28.257Z,47.10
2019-05-05T14:26:25.625Z,47.40
2019-05-05T14:28:49.116Z,47.10
2019-05-05T14:31:26.352Z,47.10
2019-05-05T14:33:58.807Z,47.10
2019-05-05T14:36:50.204Z,47.10
2019-05-05T14:39:20.957Z,47.00
2019-05-05T14:41:50.772Z,47.40
2019-05-05T14:44:20.482Z,47.50
2019-05-05T14:46:50.317Z,47.40
2019-05-05T14:49:20.188Z,47.40
2019-05-05T14:51:50.041Z,47.50
2019-05-05T14:54:19.854Z,47.70
2019-05-05T14:56:49.616Z,48.10
2019-05-05T14:59:21.127Z,48.00
2019-05-05T15:01:58.917Z,47.80
2019-05-05T15:04:32.041Z,48.00
2019-05-05T15:07:08.515Z,48.10
2019-05-05T15:09:55.795Z,48.20
2019-05-05T15:12:39.275Z,48.20
2019-05-05T15:15:09.044Z,48.00
2019-05-05T15:17:38.762Z,48.00
2019-05-05T15:20:08.551Z,47.90
2019-05-05T15:22:38.238Z,47.60
2019-05-05T15:25:08.037Z,47.50
2019-05-05T15:27:37.804Z,47.20
2019-05-05T15:30:08.117Z,47.00
2019-05-05T15:32:37.848Z,46.90
2019-05-05T15:35:07.680Z,46.80
2019-05-05T15:37:37.495Z,46.60
2019-05-05T15:40:07.441Z,46.60
2019-05-05T15:42:37.236Z,47.10
2019-05-05T15:45:06.993Z,47.50
2019-05-05T15:47:36.883Z,47.30
2019-05-05T15:50:07.344Z,46.50
2019-05-05T15:52:37.124Z,44.40
2019-05-05T15:55:07.069Z,45.40
2019-05-05T15:57:36.948Z,45.40
2019-05-05T16:00:06.897Z,45.80
2019-05-05T16:02:36.732Z,45.90
2019-05-05T16:05:06.821Z,46.20
2019-05-05T16:07:36.739Z,46.10
2019-05-05T16:10:06.511Z,46.60
2019-05-05T16:12:39.362Z,46.20
2019-05-05T16:15:27.294Z,45.80
2019-05-05T16:18:14.835Z,45.50
2019-05-05T16:20:49.096Z,45.40
2019-05-05T16:23:25.225Z,45.70
2019-05-05T16:25:54.962Z,45.90
2019-05-05T16:28:25.193Z,46.10
2019-05-05T16:30:56.281Z,46.20
2019-05-05T16:33:34.622Z,46.20
2019-05-05T16:36:07.755Z,46.40
2019-05-05T16:38:43.571Z,46.20
2019-05-05T16:41:19.393Z,47.10
2019-05-05T16:43:53.443Z,47.30
2019-05-05T16:46:30.367Z,47.30
2019-05-05T16:49:00.792Z,47.20
2019-05-05T16:51:35.007Z,47.50
2019-05-05T16:54:08.944Z,47.30
2019-05-05T16:56:46.844Z,48.50
2019-05-05T16:59:16.719Z,49.00
2019-05-05T17:01:46.676Z,49.30
2019-05-05T17:04:19.307Z,49.20
2019-05-05T17:06:50.336Z,49.10
2019-05-05T17:09:20.271Z,49.40
2019-05-05T17:12:08.894Z,48.80
2019-05-05T17:14:49.015Z,49.50
2019-05-05T17:17:37.961Z,49.40
2019-05-05T17:20:11.570Z,49.40
2019-05-05T17:22:51.325Z,49.10
2019-05-05T17:25:21.284Z,49.70
2019-05-05T17:27:51.751Z,49.70
2019-05-05T17:30:25.397Z,49.30
2019-05-05T17:32:54.411Z,49.70
2019-05-05T17:35:24.704Z,50.30
2019-05-05T17:37:56.498Z,50.00
2019-05-05T17:40:55.461Z,50.00
2019-05-05T17:43:50.279Z,50.40
2019-05-05T17:46:41.615Z,50.30
2019-05-05T17:49:30.435Z,50.20
2019-05-05T17:52:22.413Z,50.10
2019-05-05T17:55:31.210Z,50.30
2019-05-05T17:58:05.236Z,50.10
2019-05-05T18:00:47.228Z,50.30
2019-05-05T18:03:17.134Z,50.30
2019-05-05T18:06:08.908Z,50.70
2019-05-05T18:08:44.989Z,50.20
2019-05-05T18:11:45.627Z,49.00
2019-05-05T18:14:20.523Z,51.00
2019-05-05T18:16:50.243Z,52.20
2019-05-05T18:19:19.981Z,53.10
2019-05-05T18:21:50.198Z,52.40
2019-05-05T18:24:19.884Z,52.10
2019-05-05T18:26:49.875Z,52.70
2019-05-05T18:29:19.914Z,53.00
2019-05-05T18:31:49.783Z,52.90
2019-05-05T18:34:23.433Z,53.70
2019-05-05T18:36:54.413Z,53.70
2019-05-05T18:39:24.796Z,54.20
2019-05-05T18:42:01.289Z,54.30
2019-05-05T18:44:35.022Z,54.40
2019-05-05T18:47:18.857Z,54.30
2019-05-05T18:49:48.807Z,54.00
2019-05-05T18:52:18.701Z,54.30
2019-05-05T18:54:48.601Z,54.70
2019-05-05T18:57:18.669Z,55.10
2019-05-05T18:59:49.196Z,54.70
2019-05-05T19:02:44.260Z,55.00
2019-05-05T19:05:31.844Z,54.60
2019-05-05T19:08:07.908Z,54.70
2019-05-05T19:10:37.775Z,54.20
2019-05-05T19:13:07.522Z,53.20
2019-05-05T19:15:37.219Z,52.80
2019-05-05T19:18:07.092Z,52.60
2019-05-05T19:21:08.146Z,52.40
2019-05-05T19:23:38.365Z,52.40
2019-05-05T19:26:08.107Z,52.20
2019-05-05T19:28:43.883Z,52.10
2019-05-05T19:31:09.546Z,52.50
2019-05-05T19:33:39.570Z,53.00
2019-05-05T19:36:09.233Z,52.40
2019-05-05T19:38:39.038Z,52.40
2019-05-05T19:41:08.760Z,52.40
2019-05-05T19:43:54.713Z,52.90
2019-05-05T19:46:27.795Z,52.30
2019-05-05T19:49:19.296Z,52.40
2019-05-05T19:51:49.334Z,52.30
2019-05-05T19:54:18.986Z,52.20
2019-05-05T19:56:48.753Z,51.70
2019-05-05T19:59:18.620Z,52.60
2019-05-05T20:01:48.272Z,53.50
2019-05-05T20:04:17.983Z,53.60
2019-05-05T20:06:47.747Z,54.30
2019-05-05T20:09:17.792Z,54.80
2019-05-05T20:11:47.552Z,55.10
2019-05-05T20:14:19.279Z,54.90
2019-05-05T20:17:14.604Z,55.80
2019-05-05T20:19:45.453Z,54.90
2019-05-05T20:22:15.687Z,55.20
2019-05-05T20:24:45.339Z,55.10
2019-05-05T20:27:15.433Z,55.30
2019-05-05T20:29:45.087Z,55.10
2019-05-05T20:32:16.926Z,54.90
2019-05-05T20:35:14.898Z,54.00
2019-05-05T20:37:48.863Z,53.60
2019-05-05T20:40:21.056Z,54.40
2019-05-05T20:42:50.853Z,54.30
2019-05-05T20:45:23.926Z,54.30
2019-05-05T20:47:53.844Z,54.80
2019-05-05T20:50:24.805Z,54.70
2019-05-05T20:52:54.503Z,54.70
2019-05-05T20:55:25.936Z,54.40
2019-05-05T20:57:55.658Z,54.70
2019-05-05T21:00:26.331Z,54.50
2019-05-05T21:02:58.265Z,54.50
2019-05-05T21:05:27.926Z,54.40
2019-05-05T21:07:57.613Z,54.40
2019-05-05T21:10:27.275Z,54.30
2019-05-05T21:12:56.989Z,54.70
2019-05-05T21:15:26.661Z,54.40
2019-05-05T21:17:56.339Z,54.50
2019-05-05T21:20:26.013Z,54.60
2019-05-05T21:23:10.436Z,54.50
2019-05-05T21:25:44.391Z,54.60
2019-05-05T21:28:14.673Z,54.20
2019-05-05T21:30:44.512Z,54.30
2019-05-05T21:33:14.199Z,54.40
2019-05-05T21:36:04.595Z,54.30
2019-05-05T21:38:35.627Z,54.30
2019-05-05T21:41:05.415Z,54.20
2019-05-05T21:43:35.078Z,54.30
2019-05-05T21:46:04.796Z,54.20
2019-05-05T21:48:34.547Z,53.90
2019-05-05T21:51:14.588Z,54.20
2019-05-05T21:53:52.842Z,53.80
2019-05-05T21:56:41.340Z,53.90
2019-05-05T21:59:10.992Z,53.90
2019-05-05T22:01:41.226Z,53.90
2019-05-05T22:04:13.203Z,53.60
2019-05-05T22:06:43.376Z,53.60
2019-05-05T22:09:14.691Z,53.70
2019-05-05T22:11:44.545Z,53.70
2019-05-05T22:14:14.199Z,53.60
2019-05-05T22:16:44.596Z,53.50
2019-05-05T22:19:14.673Z,53.60
2019-05-05T22:21:49.042Z,53.60
2019-05-05T22:24:22.936Z,53.50
2019-05-05T22:26:54.160Z,53.70
2019-05-05T22:29:24.878Z,53.30
2019-05-05T22:31:54.835Z,53.20
2019-05-05T22:34:24.520Z,53.50
2019-05-05T22:36:54.202Z,53.10
2019-05-05T22:39:24.404Z,53.10
2019-05-05T22:41:54.472Z,53.10
2019-05-05T22:44:24.422Z,53.10
2019-05-05T22:46:54.176Z,53.10
2019-05-05T22:49:24.282Z,53.00
2019-05-05T22:51:54.249Z,52.90
2019-05-05T22:54:24.452Z,52.80
2019-05-05T22:56:54.145Z,52.90
2019-05-05T22:59:26.107Z,52.80
2019-05-05T23:01:55.079Z,52.70
2019-05-05T23:04:34.936Z,52.60
2019-05-05T23:07:08.811Z,52.80
2019-05-05T23:09:38.510Z,52.30
2019-05-05T23:12:08.249Z,52.20
2019-05-05T23:14:37.887Z,52.40
2019-05-05T23:17:15.976Z,52.30
2019-05-05T23:19:49.924Z,52.30
2019-05-05T23:22:32.144Z,52.30
2019-05-05T23:25:07.382Z,52.20
2019-05-05T23:27:50.209Z,52.30
2019-05-05T23:30:20.851Z,52.20
2019-05-05T23:32:50.540Z,52.10
2019-05-05T23:35:20.205Z,52.00
2019-05-05T23:37:49.939Z,52.00
2019-05-05T23:40:24.663Z,51.90
2019-05-05T23:42:54.641Z,51.80
2019-05-05T23:45:24.937Z,51.60
2019-05-05T23:47:54.992Z,51.50
2019-05-05T23:50:24.913Z,51.50
2019-05-05T23:52:54.878Z,51.50
2019-05-05T23:55:24.826Z,51.40
2019-05-05T23:57:55.058Z,51.50
